createdAt,value
2022-08-28T00:04:04.365Z,977.39
2022-08-28T00:10:33.555Z,977.41
2022-08-28T00:17:18.788Z,977.45
2022-08-28T00:23:43.904Z,977.52
2022-08-28T00:30:07.453Z,977.46
2022-08-28T00:36:44.478Z,977.45
2022-08-28T00:43:12.886Z,977.43
2022-08-28T00:49:48.445Z,977.42
2022-08-28T00:56:42.417Z,977.4
2022-08-28T01:03:26.951Z,977.41
2022-08-28T01:09:53.386Z,977.42
2022-08-28T01:16:40.557Z,977.45
2022-08-28T01:23:42.654Z,977.49
2022-08-28T01:30:24.557Z,977.54
2022-08-28T01:37:04.605Z,977.54
2022-08-28T01:43:44.508Z,977.5
2022-08-28T01:50:31.806Z,977.49
2022-08-28T01:57:08.456Z,977.43
2022-08-28T02:03:39.808Z,977.51
2022-08-28T02:10:13.493Z,977.45
2022-08-28T02:16:37.417Z,977.41
2022-08-28T02:23:05.978Z,977.39
2022-08-28T02:29:35.898Z,977.48
2022-08-28T02:36:25.700Z,977.5
2022-08-28T02:42:53.221Z,977.49
2022-08-28T02:49:21.663Z,977.39
2022-08-28T02:55:56.885Z,977.39
2022-08-28T03:02:28.508Z,977.31
2022-08-28T03:08:55.513Z,977.25
2022-08-28T03:15:28.277Z,977.21
2022-08-28T03:22:01.518Z,977.31
2022-08-28T03:28:33.597Z,977.28
2022-08-28T03:35:00.368Z,977.25
2022-08-28T03:41:28.712Z,977.26
2022-08-28T03:48:00.965Z,977.26
2022-08-28T03:54:33.684Z,977.31
2022-08-28T04:01:20.756Z,977.32
2022-08-28T04:07:47.584Z,977.27
2022-08-28T04:14:11.545Z,977.33
2022-08-28T04:20:37.456Z,977.38
2022-08-28T04:27:11.554Z,977.5
2022-08-28T04:33:49.635Z,977.52
2022-08-28T04:40:19.693Z,977.57
2022-08-28T04:47:01.288Z,977.59
2022-08-28T04:53:33.127Z,977.6
2022-08-28T05:00:00.368Z,977.65
2022-08-28T05:06:33.454Z,977.67
2022-08-28T05:13:19.574Z,977.73
2022-08-28T05:19:47.885Z,977.78
2022-08-28T05:26:30.273Z,977.8
2022-08-28T05:33:07.587Z,977.82
2022-08-28T05:39:43.175Z,977.88
2022-08-28T05:46:13.080Z,977.92
2022-08-28T05:52:36.382Z,978
2022-08-28T05:59:07.118Z,978.01
2022-08-28T06:05:47.583Z,978.05
2022-08-28T06:12:27.591Z,978.11
2022-08-28T06:18:56.427Z,978.13
2022-08-28T06:25:33.436Z,978.16
2022-08-28T06:32:23.221Z,978.19
2022-08-28T06:38:55.950Z,978.3
2022-08-28T06:45:29.728Z,978.37
2022-08-28T06:52:05.603Z,978.36
2022-08-28T06:58:40.594Z,978.33
2022-08-28T07:05:31.236Z,978.4
2022-08-28T07:12:03.643Z,978.45
2022-08-28T07:18:32.712Z,978.42
2022-08-28T07:24:57.575Z,978.47
2022-08-28T07:31:32.987Z,978.45
2022-08-28T07:38:15.654Z,978.54
2022-08-28T07:44:50.530Z,978.53
2022-08-28T07:51:23.660Z,978.57
2022-08-28T07:57:56.144Z,978.58
2022-08-28T08:04:16.836Z,978.64
2022-08-28T08:10:46.306Z,978.68
2022-08-28T08:17:22.399Z,978.73
2022-08-28T08:23:54.409Z,978.7
2022-08-28T08:30:31.680Z,978.72
2022-08-28T08:37:10.557Z,978.76
2022-08-28T08:43:51.681Z,978.73
2022-08-28T08:50:37.949Z,978.77
2022-08-28T08:57:50.335Z,978.83
2022-08-28T09:04:57.220Z,978.82
2022-08-28T09:12:02.097Z,978.85
2022-08-28T09:19:03.708Z,978.82
2022-08-28T09:25:41.727Z,978.85
2022-08-28T09:32:32.720Z,978.96
2022-08-28T09:39:29.601Z,979
2022-08-28T09:46:20.194Z,979.01
2022-08-28T09:53:00.072Z,979.03
2022-08-28T10:00:00.281Z,979.05
2022-08-28T10:07:05.934Z,979.07
2022-08-28T10:14:10.180Z,978.97
2022-08-28T10:21:08.132Z,978.9
2022-08-28T10:28:17.246Z,978.89
2022-08-28T10:35:33.606Z,978.95
2022-08-28T10:42:36.887Z,978.94
2022-08-28T10:49:44.117Z,978.92
2022-08-28T10:56:43.743Z,978.94
2022-08-28T11:03:40.789Z,978.93
2022-08-28T11:10:42.712Z,978.95
2022-08-28T11:17:31.768Z,978.94
2022-08-28T11:24:45.097Z,978.93
2022-08-28T11:31:50.696Z,978.9
2022-08-28T11:38:39.780Z,978.8
2022-08-28T11:45:24.676Z,978.79
2022-08-28T11:52:23.795Z,978.81
2022-08-28T11:59:36.195Z,978.9
2022-08-28T12:06:30.640Z,978.85
2022-08-28T12:13:20.605Z,978.85
2022-08-28T12:20:10.015Z,978.89
2022-08-28T12:27:03.814Z,978.83
2022-08-28T12:34:05.766Z,978.82
2022-08-28T12:41:02.133Z,978.77
2022-08-28T12:47:55.803Z,978.76
2022-08-28T12:54:54.849Z,978.67
2022-08-28T13:01:34.813Z,978.68
2022-08-28T13:08:27.472Z,978.69
2022-08-28T13:15:28.756Z,978.67
2022-08-28T13:22:36.162Z,978.63
2022-08-28T13:29:21.921Z,978.55
2022-08-28T13:36:10.575Z,978.49
2022-08-28T13:42:55.834Z,978.53
2022-08-28T13:49:42.725Z,978.51
2022-08-28T13:56:17.746Z,978.5
2022-08-28T14:02:46.278Z,978.44
2022-08-28T14:09:14.237Z,978.43
2022-08-28T14:15:39.343Z,978.35
2022-08-28T14:22:03.229Z,978.37
2022-08-28T14:28:26.826Z,978.33
2022-08-28T14:34:54.708Z,978.28
2022-08-28T14:41:30.496Z,978.23
2022-08-28T14:47:53.804Z,978.22
2022-08-28T14:54:21.125Z,978.24
2022-08-28T15:00:54.186Z,978.21
2022-08-28T15:07:34.704Z,978.25
2022-08-28T15:14:12.201Z,978.2
2022-08-28T15:20:46.756Z,978.19
2022-08-28T15:27:24.657Z,978.2
2022-08-28T15:33:52.262Z,978.16
2022-08-28T15:40:32.492Z,978.11
2022-08-28T15:47:13.174Z,978.11
2022-08-28T15:53:43.902Z,978.15
2022-08-28T16:00:11.192Z,978.16
2022-08-28T16:07:00.963Z,978.14
2022-08-28T16:13:25.749Z,978.14
2022-08-28T16:19:50.637Z,978.13
2022-08-28T16:26:17.858Z,978.19
2022-08-28T16:32:50.933Z,978.21
2022-08-28T16:39:24.749Z,978.19
2022-08-28T16:45:52.237Z,978.15
2022-08-28T16:52:14.943Z,978.18
2022-08-28T16:58:40.264Z,978.24
2022-08-28T17:05:10.682Z,978.22
2022-08-28T17:11:40.208Z,978.19
2022-08-28T17:18:14.427Z,978.17
2022-08-28T17:24:38.833Z,978.24
2022-08-28T17:31:03.113Z,978.27
2022-08-28T17:37:40.930Z,978.28
2022-08-28T17:44:13.869Z,978.33
2022-08-28T17:50:42.199Z,978.39
2022-08-28T17:57:19.975Z,978.4
2022-08-28T18:03:54.684Z,978.38
2022-08-28T18:10:25.410Z,978.45
2022-08-28T18:16:54.124Z,978.54
2022-08-28T18:23:26.865Z,978.62
2022-08-28T18:30:03.981Z,978.69
2022-08-28T18:36:40.002Z,978.71
2022-08-28T18:43:09.960Z,978.84
2022-08-28T18:49:42.157Z,978.92
2022-08-28T18:56:14.618Z,979.04
2022-08-28T19:02:42.712Z,979.09
2022-08-28T19:09:06.097Z,979.24
2022-08-28T19:15:31.238Z,979.32
2022-08-28T19:22:10.137Z,979.4
2022-08-28T19:28:40.827Z,979.39
2022-08-28T19:35:08.023Z,979.45
2022-08-28T19:41:37.948Z,979.47
2022-08-28T19:48:06.577Z,979.52
2022-08-28T19:54:32.041Z,979.59
2022-08-28T20:01:08.053Z,979.73
2022-08-28T20:07:37.460Z,979.72
2022-08-28T20:14:09.768Z,979.71
2022-08-28T20:20:39.094Z,979.78
2022-08-28T20:27:06.897Z,979.84
2022-08-28T20:33:35.028Z,979.86
2022-08-28T20:40:10.546Z,979.9
2022-08-28T20:46:56.067Z,979.94
2022-08-28T20:53:37.021Z,980
2022-08-28T21:00:14.524Z,979.98
2022-08-28T21:06:44.398Z,980.04
2022-08-28T21:13:25.997Z,980.04
2022-08-28T21:20:05.339Z,980.11
2022-08-28T21:26:35.079Z,980.15
2022-08-28T21:33:05.055Z,980.19
2022-08-28T21:39:44.064Z,980.23
2022-08-28T21:46:19.110Z,980.17
2022-08-28T21:52:46.088Z,980.32
2022-08-28T21:59:25.418Z,980.35
2022-08-28T22:06:00.457Z,980.29
2022-08-28T22:12:36.431Z,980.37
2022-08-28T22:19:08.096Z,980.42
2022-08-28T22:25:41.589Z,980.46
2022-08-28T22:32:12.150Z,980.45
2022-08-28T22:38:53.091Z,980.45
2022-08-28T22:45:30.285Z,980.41
2022-08-28T22:52:11.161Z,980.41
2022-08-28T22:58:38.349Z,980.44
2022-08-28T23:05:12.814Z,980.48
2022-08-28T23:11:38.671Z,980.44
2022-08-28T23:18:08.730Z,980.41
2022-08-28T23:24:36.855Z,980.41
2022-08-28T23:31:08.124Z,980.4
2022-08-28T23:37:38.279Z,980.35
2022-08-28T23:44:10.361Z,980.35
2022-08-28T23:50:42.054Z,980.27
2022-08-28T23:57:11.674Z,980.28
